| time (UTC) | temp F | wind direction | speed MPH | gust MPH | rain 1hr in | rain 24hr in | rain mn in | humidity % | barometer mb |
| 20260831131601 | 83 | 200 | 0.0 | 0.0 | 0.00 | 0.00 | 0.00 | 64 | 1015.7 |
| 20260831130055 | 81 | 218 | 0.0 | 1.0 | 0.00 | 0.00 | 0.00 | 65 | 1015.6 |
| 20260831124556 | 81 | 174 | 0.0 | 0.0 | 0.00 | 0.00 | 0.00 | 64 | 1015.5 |
| 20260831123053 | 80 | 221 | 0.0 | 0.0 | 0.00 | 0.00 | 0.00 | 66 | 1015.4 |
| 20260831121550 | 77 | 238 | 0.0 | 0.0 | 0.00 | 0.00 | 0.00 | 69 | 1015.3 |
| 20260831114546 | 75 | 198 | 0.0 | 0.0 | 0.00 | 0.00 | 0.00 | 73 | 1014.6 |
| 20260831113049 | 75 | 178 | 0.0 | 0.0 | 0.00 | 0.00 | 0.00 | 73 | 1014.6 |
| 20260831111539 | 76 | 167 | 0.0 | 0.0 | 0.00 | 0.00 | 0.00 | 71 | 1014.4 |
| 20260831110038 | 76 | 234 | 0.0 | 0.0 | 0.00 | 0.00 | 0.00 | 71 | 1014.3 |
| 20260831104539 | 76 | 240 | 0.0 | 0.0 | 0.00 | 0.00 | 0.00 | 70 | 1014.2 |
| 20260831103034 | 76 | 188 | 0.0 | 0.0 | 0.00 | 0.00 | 0.00 | 70 | 1014.3 |
| 20260831101534 | 77 | 227 | 0.0 | 0.0 | 0.00 | 0.00 | 0.00 | 69 | 1014.2 |
| 20260831100036 | 77 | 215 | 0.0 | 3.0 | 0.00 | 0.00 | 0.00 | 70 | 1014.1 |
| 20260831094531 | 77 | 168 | 0.0 | 0.0 | 0.00 | 0.00 | 0.00 | 69 | 1014.2 |
| 20260831093032 | 77 | 191 | 0.0 | 0.0 | 0.00 | 0.00 | 0.00 | 69 | 1014.1 |
| 20260831091533 | 78 | 197 | 0.0 | 0.0 | 0.00 | 0.00 | 0.00 | 69 | 1014.1 |
| 20260831090027 | 78 | 167 | 0.0 | 0.0 | 0.00 | 0.00 | 0.00 | 69 | 1014.0 |
| 20260831084527 | 78 | 174 | 0.0 | 2.0 | 0.00 | 0.00 | 0.00 | 68 | 1013.9 |
| 20260831083022 | 78 | 250 | 0.0 | 1.0 | 0.00 | 0.00 | 0.00 | 68 | 1013.9 |
| 20260831081522 | 79 | 172 | 0.0 | 2.0 | 0.00 | 0.00 | 0.00 | 67 | 1013.8 |
| 20260831080019 | 80 | 169 | 0.0 | 1.0 | 0.00 | 0.00 | 0.00 | 66 | 1013.7 |
| 20260831074515 | 80 | 220 | 0.0 | 1.0 | 0.00 | 0.00 | 0.00 | 65 | 1013.7 |
| 20260831073014 | 81 | 191 | 0.0 | 4.0 | 0.00 | 0.00 | 0.00 | 64 | 1013.7 |
| 20260831071512 | 81 | 109 | 0.0 | 5.0 | 0.00 | 0.00 | 0.00 | 64 | 1013.7 |
| 20260831070010 | 81 | 179 | 0.0 | 3.0 | 0.00 | 0.00 | 0.00 | 64 | 1013.6 |
| 20260831064509 | 82 | 221 | 0.0 | 3.0 | 0.00 | 0.00 | 0.00 | 64 | 1013.7 |
| 20260831063012 | 82 | 216 | 0.0 | 5.0 | 0.00 | 0.00 | 0.00 | 63 | 1013.8 |
| 20260831061507 | 82 | 198 | 0.0 | 3.0 | 0.00 | 0.00 | 0.00 | 64 | 1013.8 |
| 20260831060005 | 82 | 210 | 0.0 | 0.0 | 0.00 | 0.00 | 0.00 | 64 | 1013.9 |
| 20260831054504 | 82 | 216 | 0.0 | 0.0 | 0.00 | 0.00 | 0.00 | 63 | 1013.9 |
| 20260831053002 | 82 | 183 | 0.0 | 1.0 | 0.00 | 0.00 | 0.00 | 62 | 1013.7 |
| 20260831051606 | 83 | 206 | 0.0 | 3.0 | 0.00 | 0.00 | 0.00 | 62 | 1013.5 |
| 20260831050059 | 83 | 181 | 0.0 | 1.0 | 0.00 | 0.00 | 0.00 | 61 | 1013.4 |
| 20260831044559 | 84 | 172 | 0.0 | 1.0 | 0.00 | 0.00 | 0.00 | 60 | 1013.3 |
| 20260831043057 | 84 | 163 | 0.0 | 1.0 | 0.00 | 0.00 | 0.00 | 59 | 1013.3 |
| 20260831041603 | 84 | 169 | 0.0 | 1.0 | 0.00 | 0.00 | 0.00 | 60 | 1013.3 |
| 20260831040055 | 83 | 150 | 0.0 | 2.0 | 0.00 | 0.00 | 0.00 | 61 | 1013.2 |
| 20260831034553 | 81 | 172 | 0.0 | 0.0 | 0.00 | 0.00 | 0.00 | 63 | 1013.2 |
| 20260831033107 | 80 | 199 | 0.0 | 0.0 | 0.00 | 0.00 | 0.00 | 66 | 1013.1 |
| 20260831031552 | 81 | 215 | 0.0 | 0.0 | 0.00 | 0.00 | 0.00 | 71 | 1013.0 |
| 20260831030051 | 81 | 221 | 0.0 | 0.0 | 0.00 | 0.00 | 0.00 | 67 | 1012.9 |
| 20260831024550 | 82 | 220 | 0.0 | 0.0 | 0.00 | 0.00 | 0.00 | 64 | 1012.9 |
| 20260831023049 | 82 | 212 | 0.0 | 0.0 | 0.00 | 0.00 | 0.00 | 62 | 1012.6 |
| 20260831021549 | 82 | 212 | 0.0 | 0.0 | 0.00 | 0.00 | 0.00 | 65 | 1012.5 |
| 20260831020105 | 83 | 219 | 0.0 | 0.0 | 0.00 | 0.00 | 0.00 | 63 | 1012.5 |
| 20260831014548 | 84 | 198 | 0.0 | 0.0 | 0.00 | 0.00 | 0.00 | 61 | 1012.1 |
| 20260831013048 | 86 | 198 | 0.0 | 0.0 | 0.00 | 0.00 | 0.00 | 58 | 1012.0 |
| 20260831011547 | 88 | 198 | 0.0 | 0.0 | 0.00 | 0.00 | 0.00 | 54 | 1012.0 |
| 20260831010046 | 90 | 210 | 0.0 | 0.0 | 0.00 | 0.00 | 0.00 | 48 | 1011.9 |
| 20260831004546 | 91 | 217 | 0.0 | 0.0 | 0.00 | 0.00 | 0.00 | 46 | 1011.9 |
| 20260831003045 | 93 | 219 | 0.0 | 1.0 | 0.00 | 0.00 | 0.00 | 43 | 1011.9 |
| 20260831001545 | 94 | 182 | 0.0 | 1.0 | 0.00 | 0.00 | 0.00 | 43 | 1011.8 |
| 20260831000047 | 95 | 178 | 0.0 | 3.0 | 0.00 | 0.00 | 0.00 | 41 | 1011.8 |
| 20260830234543 | 96 | 229 | 0.0 | 10.0 | 0.00 | 0.00 | 0.00 | 41 | 1011.9 |
| 20260830233046 | 97 | 175 | 0.0 | 2.0 | 0.00 | 0.00 | 0.00 | 39 | 1012.0 |
| 20260830231543 | 98 | 160 | 0.0 | 6.0 | 0.00 | 0.00 | 0.00 | 38 | 1011.9 |
| 20260830230042 | 98 | 207 | 0.0 | 5.0 | 0.00 | 0.00 | 0.00 | 38 | 1011.9 |
| 20260830224543 | 99 | 192 | 0.0 | 6.0 | 0.00 | 0.00 | 0.00 | 37 | 1011.9 |
| 20260830223041 | 99 | 234 | 0.0 | 6.0 | 0.00 | 0.00 | 0.00 | 38 | 1011.9 |
| 20260830221542 | 100 | 195 | 0.0 | 9.0 | 0.00 | 0.00 | 0.00 | 37 | 1012.0 |
| 20260830220041 | 100 | 183 | 0.0 | 6.0 | 0.00 | 0.00 | 0.00 | 36 | 1012.0 |
| 20260830214536 | 100 | 233 | 2.0 | 9.0 | 0.00 | 0.00 | 0.00 | 36 | 1012.0 |
| 20260830213037 | 100 | 214 | 0.0 | 3.0 | 0.00 | 0.00 | 0.00 | 37 | 1012.2 |
| 20260830211531 | 101 | 130 | 0.0 | 7.0 | 0.00 | 0.00 | 0.00 | 37 | 1012.1 |
| 20260830210028 | 101 | 225 | 0.0 | 6.0 | 0.00 | 0.00 | 0.00 | 38 | 1012.2 |
| 20260830204528 | 101 | 253 | 0.0 | 5.0 | 0.00 | 0.00 | 0.00 | 37 | 1012.2 |
| 20260830203027 | 101 | 146 | 0.0 | 4.0 | 0.00 | 0.00 | 0.00 | 37 | 1012.4 |
| 20260830201524 | 102 | 209 | 0.0 | 2.0 | 0.00 | 0.00 | 0.00 | 37 | 1012.6 |
| 20260830200021 | 101 | 180 | 0.0 | 6.0 | 0.00 | 0.00 | 0.00 | 39 | 1012.8 |
| 20260830194519 | 101 | 228 | 0.0 | 3.0 | 0.00 | 0.00 | 0.00 | 39 | 1012.9 |
| 20260830193016 | 100 | 149 | 0.0 | 4.0 | 0.00 | 0.00 | 0.00 | 40 | 1013.2 |
| 20260830191517 | 100 | 215 | 0.0 | 6.0 | 0.00 | 0.00 | 0.00 | 39 | 1013.3 |
| 20260830190014 | 100 | 164 | 0.0 | 3.0 | 0.00 | 0.00 | 0.00 | 41 | 1013.4 |
| 20260830184511 | 99 | 229 | 0.0 | 8.0 | 0.00 | 0.00 | 0.00 | 40 | 1013.6 |
| 20260830181541 | 99 | 204 | 0.0 | 4.0 | 0.00 | 0.00 | 0.00 | 41 | 1013.7 |
| 20260830180036 | 98 | 159 | 0.0 | 5.0 | 0.00 | 0.00 | 0.00 | 41 | 1013.9 |
| 20260830174536 | 98 | 153 | 0.0 | 8.0 | 0.00 | 0.00 | 0.00 | 40 | 1014.0 |
| 20260830173031 | 97 | 221 | 0.0 | 5.0 | 0.00 | 0.00 | 0.00 | 42 | 1014.3 |
| 20260830173027 | 97 | 248 | 0.0 | 5.0 | 0.00 | 0.00 | 0.00 | 42 | 1014.3 |
| 20260830171519 | 96 | 231 | 0.0 | 7.0 | 0.00 | 0.00 | 0.00 | 42 | 1014.4 |
| 20260830170035 | 96 | 290 | 0.0 | 7.0 | 0.00 | 0.00 | 0.00 | 41 | 1014.6 |
| 20260830164515 | 95 | 168 | 0.0 | 7.0 | 0.00 | 0.00 | 0.00 | 43 | 1014.8 |
| 20260830163012 | 94 | 188 | 0.0 | 9.0 | 0.00 | 0.00 | 0.00 | 43 | 1015.0 |
| 20260830161511 | 94 | 228 | 0.0 | 4.0 | 0.00 | 0.00 | 0.00 | 45 | 1015.2 |
| 20260830160010 | 94 | 220 | 0.0 | 0.0 | 0.00 | 0.00 | 0.00 | 44 | 1015.1 |
| 20260830154506 | 93 | 138 | 0.0 | 1.0 | 0.00 | 0.00 | 0.00 | 45 | 1015.3 |
| 20260830153001 | 91 | 162 | 0.0 | 1.0 | 0.00 | 0.00 | 0.00 | 50 | 1015.2 |
| 20260830151608 | 90 | 175 | 0.0 | 0.0 | 0.00 | 0.00 | 0.00 | 50 | 1015.1 |
| 20260830150056 | 87 | 192 | 0.0 | 1.0 | 0.00 | 0.00 | 0.00 | 54 | 1015.2 |
| 20260830144555 | 85 | 219 | 0.0 | 1.0 | 0.00 | 0.00 | 0.00 | 55 | 1015.2 |
| 20260830143047 | 84 | 207 | 0.0 | 4.0 | 0.00 | 0.00 | 0.00 | 55 | 1015.1 |
| 20260830141545 | 83 | 154 | 0.0 | 8.0 | 0.00 | 0.00 | 0.00 | 57 | 1014.9 |
| 20260830140045 | 83 | 153 | 0.0 | 6.0 | 0.00 | 0.00 | 0.00 | 57 | 1014.9 |
| 20260830134549 | 82 | 235 | 0.0 | 4.0 | 0.00 | 0.00 | 0.00 | 57 | 1015.0 |
| 20260830133039 | 82 | 233 | 0.0 | 7.0 | 0.00 | 0.00 | 0.00 | 59 | 1015.0 |